Oakton, VA (22185)

8:42 PM EST on January 26, 2015 (GMT -0500)
Vienna Woods | Change Station
CLOSE
Current Station
Personal Weather Station
Location: Vienna, VA
Elevation: 361 ft
Nearby Weather Stations
Active Advisory: Winter Weather Advisory Active Notice: Public Information Statement

Elev 361 ft 38.90 °N, 77.27 °W | Updated 22 seconds ago

Snow
Snow
26.1 °F
Feels Like 19 °F
N
6.3
Wind Variable Wind from NW
Gusts 9.8 mph

Today
High -- | Low -- °F
--% Chance of Precip.
Yesterday
High -- | Low -- °F
Precip. -- in
7:20 AM 5:23 PM
Waxing Crescent, 49% visible
Pressure 29.77 in
Visibility 1.0 miles
Clouds Mostly Cloudy 900 ft
Mostly Cloudy 1100 ft
Overcast 2300 ft
Windchill 19 °F
Dew Point 24 °F
Humidity 93%
Rainfall 0.14 in
Snow Depth Not available.
UV 0 out of 12
Pollen .10 out of 12
Air Quality Not available.
Flu Activity Not available.
SPECI KIAD 270130Z 35012KT 1SM R01R/P6000FT -SN BR BKN009 BKN011 OVC023 M03/M05 A2977 RMK AO2 TWR VIS 1 1/4 P0000

More Conditions Fewer Conditions

Pressure 29.77 in
Visibility 1.0 miles
Clouds Mostly Cloudy 900 ft
Mostly Cloudy 1100 ft
Overcast 2300 ft
Windchill 19 °F
Dew Point 24 °F
Humidity 93%
Rainfall 0.14 in
Snow Depth Not available.
UV 0 out of 12
Pollen .10 out of 12
Air Quality Not available.
Flu Activity Not available.
SPECI KIAD 270130Z 35012KT 1SM R01R/P6000FT -SN BR BKN009 BKN011 OVC023 M03/M05 A2977 RMK AO2 TWR VIS 1 1/4 P0000

More Conditions Fewer Conditions

10-Day Weather Forecast

Almanac

Astronomy

Jan. 26, 2015 Rise Set
Actual Time
Civil Twilight
Nautical Twilight
Astronomical Twilight
Moon
Length of Visible Light
Length of Day
Tomorrow will be .
, % of the Moon is Illuminated

Today's Extremes

State Highs State Lows

Community

WunderPhotos

Upload Photos

1,790,451 photos uploaded!

WunderBlogs® & News

Nearby

Air Quality

  Air Quality AQ Index Pollutant
Not available.

Snow Depth

Station Depth Elevation

Earthquake Activity

City Distance Mag. Time & Date
Minimum magnitude displayed is 2.5.

Coastal Water Temperatures

Place Temperature

Nearby Weather Stations